createdAt,value
2019-01-09T00:00:36.571Z,3.70
2019-01-09T00:02:52.743Z,3.70
2019-01-09T00:05:08.452Z,3.60
2019-01-09T00:07:24.068Z,3.70
2019-01-09T00:09:40.904Z,3.60
2019-01-09T00:11:57.196Z,4.30
2019-01-09T00:14:13.178Z,3.60
2019-01-09T00:16:30.058Z,2.70
2019-01-09T00:18:46.068Z,3.70
2019-01-09T00:21:01.815Z,3.70
2019-01-09T00:23:17.567Z,3.80
2019-01-09T00:25:33.654Z,3.70
2019-01-09T00:27:49.857Z,3.70
2019-01-09T00:30:05.967Z,3.70
2019-01-09T00:32:22.349Z,3.70
2019-01-09T00:34:38.283Z,3.80
2019-01-09T00:36:54.545Z,3.80
2019-01-09T00:39:11.174Z,3.70
2019-01-09T00:41:26.618Z,3.80
2019-01-09T00:43:42.723Z,3.80
2019-01-09T00:45:58.593Z,3.20
2019-01-09T00:48:14.715Z,3.80
2019-01-09T00:50:30.895Z,3.80
2019-01-09T00:52:47.123Z,3.70
2019-01-09T00:55:03.176Z,3.80
2019-01-09T00:57:19.146Z,3.80
2019-01-09T00:59:35.323Z,3.80
2019-01-09T01:01:51.663Z,3.70
2019-01-09T01:04:07.795Z,3.70
2019-01-09T01:06:23.695Z,3.80
2019-01-09T01:08:40.355Z,3.80
2019-01-09T01:10:57.258Z,3.80
2019-01-09T01:13:13.312Z,3.80
2019-01-09T01:15:29.019Z,3.90
2019-01-09T01:17:45.383Z,3.70
2019-01-09T01:20:01.878Z,3.80
2019-01-09T01:22:17.343Z,3.80
2019-01-09T01:24:33.111Z,3.80
2019-01-09T01:26:49.615Z,3.70
2019-01-09T01:29:05.717Z,3.80
2019-01-09T01:31:21.454Z,3.00
2019-01-09T01:33:37.819Z,3.80
2019-01-09T01:35:54.884Z,3.80
2019-01-09T01:38:11.232Z,3.80
2019-01-09T01:40:27.323Z,3.80
2019-01-09T01:42:43.532Z,3.80
2019-01-09T01:44:59.480Z,3.70
2019-01-09T01:47:15.536Z,3.70
2019-01-09T01:49:31.835Z,3.70
2019-01-09T01:51:47.770Z,3.70
2019-01-09T01:54:04.336Z,3.70
2019-01-09T01:56:20.723Z,3.60
2019-01-09T01:58:37.071Z,3.60
2019-01-09T02:00:53.826Z,3.60
2019-01-09T02:03:10.019Z,3.60
2019-01-09T02:05:26.569Z,3.60
2019-01-09T02:07:42.779Z,3.50
2019-01-09T02:12:16.177Z,3.00
2019-01-09T02:14:32.511Z,3.60
2019-01-09T02:16:48.807Z,3.60
2019-01-09T02:19:04.822Z,3.60
2019-01-09T02:21:21.095Z,3.60
2019-01-09T02:23:54.648Z,3.60
2019-01-09T02:26:37.688Z,3.60
2019-01-09T02:29:20.671Z,3.60
2019-01-09T02:36:52.203Z,3.70
2019-01-09T02:39:15.403Z,3.60
2019-01-09T02:41:38.656Z,3.60
2019-01-09T02:46:46.667Z,3.60
2019-01-09T02:49:10.191Z,3.50
2019-01-09T02:54:17.632Z,3.50
2019-01-09T02:56:40.863Z,3.50
2019-01-09T02:59:04.135Z,3.60
2019-01-09T03:01:27.717Z,3.60
2019-01-09T03:03:50.892Z,3.00
2019-01-09T03:06:22.712Z,3.50
2019-01-09T03:08:39.581Z,3.60
2019-01-09T03:11:02.988Z,3.50
2019-01-09T03:13:26.214Z,3.60
2019-01-09T03:15:49.999Z,3.50
2019-01-09T03:18:14.300Z,3.60
2019-01-09T03:20:38.149Z,3.50
2019-01-09T03:23:01.689Z,3.60
2019-01-09T03:27:53.743Z,3.60
2019-01-09T03:30:17.189Z,3.60
2019-01-09T03:32:40.784Z,3.60
2019-01-09T03:35:03.920Z,2.90
2019-01-09T03:37:27.324Z,3.70
2019-01-09T03:39:51.193Z,3.60
2019-01-09T03:42:15.143Z,3.60
2019-01-09T03:44:39.094Z,3.60
2019-01-09T03:49:47.147Z,3.50
2019-01-09T03:52:10.272Z,3.60
2019-01-09T03:57:02.796Z,3.50
2019-01-09T03:59:26.160Z,3.50
2019-01-09T04:06:54.816Z,3.40
2019-01-09T04:09:18.675Z,3.50
2019-01-09T04:11:42.001Z,3.50
2019-01-09T04:14:24.972Z,3.60
2019-01-09T04:16:48.395Z,3.60
2019-01-09T04:19:11.597Z,3.50
2019-01-09T04:21:35.379Z,3.50
2019-01-09T04:24:00.867Z,3.50
2019-01-09T04:26:16.946Z,3.50
2019-01-09T04:28:32.775Z,3.50
2019-01-09T04:30:49.471Z,3.50
2019-01-09T04:33:05.966Z,3.60
2019-01-09T04:35:21.812Z,3.60
2019-01-09T04:37:37.883Z,3.50
2019-01-09T04:39:54.205Z,3.40
2019-01-09T04:42:10.567Z,3.50
2019-01-09T04:44:26.394Z,3.40
2019-01-09T04:46:42.753Z,3.40
2019-01-09T04:48:59.664Z,3.30
2019-01-09T04:51:16.231Z,3.40
2019-01-09T04:53:31.982Z,3.40
2019-01-09T04:55:47.455Z,3.40
2019-01-09T04:58:03.703Z,3.50
2019-01-09T05:00:19.836Z,3.50
2019-01-09T05:02:36.135Z,3.50
2019-01-09T05:04:52.689Z,3.50
2019-01-09T05:07:09.136Z,3.50
2019-01-09T05:09:25.234Z,3.40
2019-01-09T05:11:41.751Z,3.50
2019-01-09T05:13:57.714Z,3.50
2019-01-09T05:16:12.326Z,3.50
2019-01-09T05:18:35.840Z,3.60
2019-01-09T05:26:00.893Z,3.60
2019-01-09T05:28:17.050Z,3.50
2019-01-09T05:32:50.563Z,3.50
2019-01-09T05:35:06.358Z,3.50
2019-01-09T05:37:22.852Z,3.50
2019-01-09T05:39:39.753Z,3.50
2019-01-09T05:41:55.757Z,3.50
2019-01-09T05:44:12.032Z,3.50
2019-01-09T05:46:28.440Z,3.60
2019-01-09T05:48:45.361Z,3.50
2019-01-09T05:51:01.586Z,3.50
2019-01-09T05:53:18.356Z,3.50
2019-01-09T05:55:34.781Z,3.50
2019-01-09T05:57:50.985Z,3.40
2019-01-09T06:00:07.555Z,3.40
2019-01-09T06:02:23.670Z,3.30
2019-01-09T06:04:39.820Z,3.40
2019-01-09T06:06:56.457Z,3.40
2019-01-09T06:09:12.902Z,3.30
2019-01-09T06:11:28.956Z,3.20
2019-01-09T06:13:45.271Z,3.30
2019-01-09T06:16:01.971Z,3.30
2019-01-09T06:18:18.405Z,3.30
2019-01-09T06:20:34.316Z,2.60
2019-01-09T06:22:50.426Z,3.20
2019-01-09T06:25:06.948Z,3.30
2019-01-09T06:27:22.956Z,3.20
2019-01-09T06:29:38.947Z,3.20
2019-01-09T06:31:54.421Z,3.20
2019-01-09T06:34:11.039Z,3.30
2019-01-09T06:36:27.214Z,4.30
2019-01-09T06:38:42.745Z,3.20
2019-01-09T06:40:59.219Z,3.30
2019-01-09T06:43:15.417Z,3.30
2019-01-09T06:45:31.852Z,3.30
2019-01-09T06:47:48.295Z,3.40
2019-01-09T06:50:04.208Z,3.40
2019-01-09T06:52:20.888Z,3.40
2019-01-09T06:54:37.395Z,3.40
2019-01-09T06:56:53.356Z,3.40
2019-01-09T06:59:09.438Z,3.40
2019-01-09T07:01:25.724Z,3.30
2019-01-09T07:03:42.159Z,3.40
2019-01-09T07:05:58.660Z,3.50
2019-01-09T07:08:14.445Z,3.50
2019-01-09T07:10:30.450Z,3.50
2019-01-09T07:12:46.226Z,3.50
2019-01-09T07:15:11.058Z,3.50
2019-01-09T07:17:21.114Z,2.90
2019-01-09T07:19:37.031Z,3.50
2019-01-09T07:21:53.130Z,3.60
2019-01-09T07:24:09.179Z,3.60
2019-01-09T07:26:25.011Z,3.60
2019-01-09T07:28:41.851Z,3.50
2019-01-09T07:30:58.119Z,3.60
2019-01-09T07:33:14.633Z,2.70
2019-01-09T07:35:30.323Z,3.60
2019-01-09T07:37:46.540Z,3.60
2019-01-09T07:40:03.489Z,3.60
2019-01-09T07:42:20.051Z,3.60
2019-01-09T07:44:36.233Z,3.70
2019-01-09T07:46:51.706Z,3.70
2019-01-09T07:49:06.703Z,3.70
2019-01-09T07:51:30.859Z,3.60
2019-01-09T07:53:57.278Z,3.60
2019-01-09T07:56:20.090Z,3.60
2019-01-09T08:01:12.559Z,3.60
2019-01-09T08:03:36.215Z,3.60
2019-01-09T08:05:59.468Z,3.50
2019-01-09T08:08:23.403Z,3.60
2019-01-09T08:10:47.210Z,3.70
2019-01-09T08:13:10.932Z,3.70
2019-01-09T08:15:34.356Z,2.80
2019-01-09T08:17:57.893Z,3.70
2019-01-09T08:20:21.710Z,3.70
2019-01-09T08:22:44.910Z,3.60
2019-01-09T08:25:09.215Z,3.60
2019-01-09T08:27:33.208Z,3.60
2019-01-09T08:29:49.669Z,3.60
2019-01-09T08:34:23.261Z,3.60
2019-01-09T08:36:39.956Z,3.60
2019-01-09T08:39:00.155Z,3.60
2019-01-09T08:41:16.367Z,3.60
2019-01-09T08:45:52.155Z,3.50
2019-01-09T08:48:16.148Z,3.50
2019-01-09T08:53:12.605Z,3.60
2019-01-09T08:58:19.428Z,3.60
2019-01-09T09:03:25.671Z,3.60
2019-01-09T09:05:49.357Z,3.70
2019-01-09T09:10:56.987Z,3.60
2019-01-09T09:13:39.268Z,3.60
2019-01-09T09:16:03.228Z,3.70
2019-01-09T09:18:26.616Z,3.60
2019-01-09T09:26:03.352Z,3.30
2019-01-09T09:33:41.104Z,3.30
2019-01-09T09:36:04.871Z,3.20
2019-01-09T09:38:21.680Z,3.20
2019-01-09T09:40:37.896Z,3.20
2019-01-09T09:42:54.790Z,3.30
2019-01-09T09:45:11.335Z,3.20
2019-01-09T09:47:27.491Z,3.10
2019-01-09T09:49:43.598Z,3.30
2019-01-09T09:51:59.730Z,3.10
2019-01-09T09:54:15.711Z,2.90
2019-01-09T09:56:31.851Z,2.90
2019-01-09T09:58:48.096Z,2.90
2019-01-09T10:01:04.861Z,2.90
2019-01-09T10:03:20.429Z,2.90
2019-01-09T10:05:37.126Z,3.00
2019-01-09T10:07:53.069Z,3.00
2019-01-09T10:10:08.701Z,3.10
2019-01-09T10:12:25.167Z,3.20
2019-01-09T10:14:40.588Z,3.20
2019-01-09T10:16:56.503Z,3.30
2019-01-09T10:19:12.784Z,3.40
2019-01-09T10:21:29.601Z,3.50
2019-01-09T10:23:46.614Z,3.40
2019-01-09T10:26:02.768Z,3.40
2019-01-09T10:28:18.740Z,3.50
2019-01-09T10:30:35.802Z,3.60
2019-01-09T10:32:52.231Z,3.50
2019-01-09T10:35:07.977Z,3.60
2019-01-09T10:37:23.654Z,3.60
2019-01-09T10:39:39.728Z,3.80
2019-01-09T10:41:55.681Z,3.70
2019-01-09T10:44:18.664Z,3.80
2019-01-09T10:46:28.895Z,3.80
2019-01-09T10:48:45.720Z,3.80
2019-01-09T10:51:01.915Z,3.80
2019-01-09T10:53:17.903Z,3.90
2019-01-09T10:55:34.363Z,3.80
2019-01-09T10:57:50.574Z,3.70
2019-01-09T11:00:06.967Z,3.30
2019-01-09T11:02:22.729Z,3.80
2019-01-09T11:04:38.620Z,3.80
2019-01-09T11:06:55.087Z,3.80
2019-01-09T11:09:11.300Z,3.80
2019-01-09T11:11:27.759Z,3.60
2019-01-09T11:13:43.415Z,3.50
2019-01-09T11:15:59.763Z,3.20
2019-01-09T11:18:15.852Z,3.10
2019-01-09T11:20:32.523Z,3.20
2019-01-09T11:22:48.155Z,3.20
2019-01-09T11:25:03.892Z,3.40
2019-01-09T11:27:19.544Z,3.40
2019-01-09T11:29:35.097Z,3.40
2019-01-09T11:31:50.903Z,3.50
2019-01-09T11:34:07.465Z,3.50
2019-01-09T11:38:41.423Z,3.50
2019-01-09T11:40:56.978Z,3.40
2019-01-09T11:43:11.635Z,3.40
2019-01-09T11:45:35.431Z,3.40
2019-01-09T11:53:13.232Z,3.50
2019-01-09T12:00:51.347Z,3.50
2019-01-09T12:03:15.590Z,3.50
2019-01-09T12:08:10.921Z,3.30
2019-01-09T12:10:34.668Z,3.30
2019-01-09T12:12:58.588Z,3.30
2019-01-09T12:17:56.647Z,3.30
2019-01-09T12:20:20.561Z,3.40
2019-01-09T12:22:44.742Z,3.40
2019-01-09T12:25:09.075Z,3.50
2019-01-09T12:27:33.507Z,3.50
2019-01-09T12:29:57.767Z,3.50
2019-01-09T12:32:21.009Z,3.40
2019-01-09T12:34:37.466Z,3.60
2019-01-09T12:36:53.371Z,3.60
2019-01-09T12:39:13.300Z,3.60
2019-01-09T12:41:27.465Z,3.50
2019-01-09T12:43:43.772Z,3.60
2019-01-09T12:45:59.862Z,3.50
2019-01-09T12:48:15.648Z,3.60
2019-01-09T12:50:32.284Z,3.60
2019-01-09T12:52:48.309Z,3.60
2019-01-09T12:55:05.388Z,3.60
2019-01-09T12:57:21.468Z,3.60
2019-01-09T12:59:38.404Z,3.50
2019-01-09T13:01:54.879Z,3.50
2019-01-09T13:04:10.872Z,3.50
2019-01-09T13:06:26.950Z,3.40
2019-01-09T13:08:43.963Z,3.40
2019-01-09T13:10:59.968Z,2.80
2019-01-09T13:13:16.427Z,3.20
2019-01-09T13:15:33.279Z,3.20
2019-01-09T13:17:49.812Z,3.20
2019-01-09T13:20:05.548Z,3.20
2019-01-09T13:22:21.275Z,3.30
2019-01-09T13:26:55.307Z,3.30
2019-01-09T13:29:12.027Z,3.20
2019-01-09T13:31:28.267Z,3.20
2019-01-09T13:33:44.740Z,3.20
2019-01-09T13:36:00.947Z,3.20
2019-01-09T13:38:17.091Z,3.20
2019-01-09T13:40:34.414Z,3.30
2019-01-09T13:42:50.572Z,3.10
2019-01-09T13:45:06.949Z,3.10
2019-01-09T13:47:23.232Z,3.10
2019-01-09T13:49:39.275Z,3.20
2019-01-09T13:51:55.691Z,3.10
2019-01-09T13:54:12.147Z,3.20
2019-01-09T13:56:27.972Z,3.20
2019-01-09T13:58:44.263Z,3.20
2019-01-09T14:01:01.077Z,3.30
2019-01-09T14:03:16.699Z,3.40
2019-01-09T14:05:33.674Z,3.40
2019-01-09T14:07:49.953Z,3.30
2019-01-09T14:10:05.876Z,3.40
2019-01-09T14:12:22.438Z,3.30
2019-01-09T14:14:38.543Z,3.30
2019-01-09T14:16:54.667Z,3.10
2019-01-09T14:19:10.719Z,3.10
2019-01-09T14:21:26.720Z,3.20
2019-01-09T14:23:42.715Z,3.20
2019-01-09T14:25:58.512Z,3.20
2019-01-09T14:28:14.819Z,3.30
2019-01-09T14:30:30.923Z,3.30
2019-01-09T14:32:47.700Z,3.30
2019-01-09T14:35:04.428Z,3.30
2019-01-09T14:37:20.527Z,3.40
2019-01-09T14:39:36.937Z,3.40
2019-01-09T14:41:53.030Z,3.30
2019-01-09T14:44:09.096Z,3.30
2019-01-09T14:46:25.747Z,3.30
2019-01-09T14:48:41.983Z,3.40
2019-01-09T14:50:58.274Z,3.40
2019-01-09T14:53:14.208Z,3.40
2019-01-09T14:55:30.536Z,3.40
2019-01-09T14:57:46.649Z,3.30
2019-01-09T15:00:02.392Z,3.30
2019-01-09T15:02:18.089Z,3.30
2019-01-09T15:04:34.375Z,3.30
2019-01-09T15:06:50.542Z,3.30
2019-01-09T15:09:06.155Z,3.30
2019-01-09T15:11:22.713Z,3.30
2019-01-09T15:13:36.889Z,3.30
2019-01-09T15:16:00.772Z,3.30
2019-01-09T15:20:58.950Z,3.20
2019-01-09T15:23:22.284Z,3.30
2019-01-09T15:25:46.191Z,3.30
2019-01-09T15:28:09.528Z,3.30
2019-01-09T15:33:03.663Z,3.50
2019-01-09T15:35:26.992Z,4.10
2019-01-09T15:37:50.986Z,3.40
2019-01-09T15:42:58.501Z,3.50
2019-01-09T15:45:14.358Z,3.50
2019-01-09T15:47:30.964Z,3.40
2019-01-09T15:49:47.207Z,3.30
2019-01-09T15:52:02.736Z,3.30
2019-01-09T15:54:18.630Z,3.30
2019-01-09T15:56:34.911Z,3.30
2019-01-09T15:58:51.060Z,3.30
2019-01-09T16:01:07.128Z,3.30
2019-01-09T16:03:23.549Z,3.40
2019-01-09T16:05:39.802Z,3.40
2019-01-09T16:07:55.815Z,3.40
2019-01-09T16:10:14.667Z,3.40
2019-01-09T16:12:29.734Z,3.40
2019-01-09T16:14:45.548Z,3.50
2019-01-09T16:17:01.872Z,3.40
2019-01-09T16:19:18.334Z,3.50
2019-01-09T16:21:33.996Z,3.40
2019-01-09T16:23:49.724Z,3.50
2019-01-09T16:26:05.909Z,3.50
2019-01-09T16:28:22.715Z,3.50
2019-01-09T16:30:38.864Z,3.50
2019-01-09T16:32:54.677Z,3.40
2019-01-09T16:35:11.482Z,3.40
2019-01-09T16:37:27.819Z,3.50
2019-01-09T16:39:43.990Z,3.50
2019-01-09T16:42:00.215Z,3.50
2019-01-09T16:44:16.784Z,3.50
2019-01-09T16:46:33.035Z,3.50
2019-01-09T16:48:48.680Z,3.50
2019-01-09T16:51:04.584Z,3.50
2019-01-09T16:53:20.770Z,3.50
2019-01-09T16:55:37.036Z,3.60
2019-01-09T16:57:52.690Z,3.70
2019-01-09T17:00:09.450Z,3.50
2019-01-09T17:02:25.824Z,3.50
2019-01-09T17:04:42.167Z,3.50
2019-01-09T17:06:57.823Z,3.50
2019-01-09T17:09:14.511Z,3.50
2019-01-09T17:11:30.914Z,2.40
2019-01-09T17:13:46.967Z,3.50
2019-01-09T17:16:03.707Z,3.50
2019-01-09T17:18:20.016Z,3.50
2019-01-09T17:20:36.382Z,3.50
2019-01-09T17:22:52.428Z,3.40
2019-01-09T17:25:09.393Z,3.40
2019-01-09T17:27:25.720Z,3.50
2019-01-09T17:29:42.567Z,3.50
2019-01-09T17:31:58.775Z,3.50
2019-01-09T17:34:15.483Z,3.40
2019-01-09T17:36:32.135Z,3.40
2019-01-09T17:38:49.004Z,3.40
2019-01-09T17:41:05.485Z,3.40
2019-01-09T17:43:21.590Z,3.40
2019-01-09T17:45:37.425Z,3.40
2019-01-09T17:47:53.323Z,3.20
2019-01-09T17:50:10.104Z,3.40
2019-01-09T17:52:26.095Z,3.40
2019-01-09T17:54:42.389Z,4.30
2019-01-09T17:56:58.160Z,3.40
2019-01-09T17:59:14.540Z,3.40
2019-01-09T18:01:31.120Z,3.30
2019-01-09T18:03:47.080Z,3.30
2019-01-09T18:06:08.068Z,2.30
2019-01-09T18:08:24.118Z,3.40
2019-01-09T18:10:49.681Z,3.30
2019-01-09T18:12:58.777Z,2.80
2019-01-09T18:15:15.608Z,3.40
2019-01-09T18:17:31.436Z,3.30
2019-01-09T18:19:47.961Z,3.40
2019-01-09T18:22:04.659Z,3.40
2019-01-09T18:24:21.099Z,3.40
2019-01-09T18:26:36.725Z,3.30
2019-01-09T18:28:53.088Z,3.40
2019-01-09T18:31:10.051Z,3.50
2019-01-09T18:33:26.536Z,3.40
2019-01-09T18:35:42.831Z,3.30
2019-01-09T18:37:59.312Z,3.40
2019-01-09T18:40:16.092Z,3.40
2019-01-09T18:42:32.546Z,3.40
2019-01-09T18:44:48.926Z,3.40
2019-01-09T18:47:05.027Z,3.40
2019-01-09T18:49:21.399Z,3.40
2019-01-09T18:51:37.980Z,3.30
2019-01-09T18:53:54.008Z,3.30
2019-01-09T18:56:10.536Z,3.30
2019-01-09T18:58:26.163Z,3.40
2019-01-09T19:00:43.235Z,3.40
2019-01-09T19:02:59.939Z,3.40
2019-01-09T19:05:16.012Z,3.40
2019-01-09T19:07:31.996Z,3.40
2019-01-09T19:09:47.791Z,3.40
2019-01-09T19:12:04.674Z,3.40
2019-01-09T19:14:20.933Z,3.40
2019-01-09T19:16:37.023Z,3.30
2019-01-09T19:18:54.270Z,3.40
2019-01-09T19:21:10.552Z,3.30
2019-01-09T19:23:27.270Z,3.40
2019-01-09T19:25:43.570Z,3.40
2019-01-09T19:27:59.880Z,3.40
2019-01-09T19:30:16.445Z,3.50
2019-01-09T19:32:32.304Z,2.70
2019-01-09T19:34:47.909Z,3.40
2019-01-09T19:37:03.594Z,3.50
2019-01-09T19:39:19.150Z,3.40
2019-01-09T19:41:35.731Z,3.30
2019-01-09T19:43:52.142Z,3.30
2019-01-09T19:46:08.133Z,3.30
2019-01-09T19:48:24.527Z,3.30
2019-01-09T19:50:42.629Z,3.30
2019-01-09T19:52:58.419Z,3.30
2019-01-09T19:55:14.563Z,3.30
2019-01-09T19:57:30.513Z,3.30
2019-01-09T19:59:46.908Z,3.30
2019-01-09T20:02:03.060Z,2.50
2019-01-09T20:04:18.627Z,3.30
2019-01-09T20:06:35.311Z,3.30
2019-01-09T20:08:51.539Z,3.30
2019-01-09T20:11:08.876Z,3.20
2019-01-09T20:13:25.930Z,3.20
2019-01-09T20:15:41.872Z,3.10
2019-01-09T20:17:57.663Z,3.10
2019-01-09T20:20:14.419Z,3.10
2019-01-09T20:22:30.290Z,3.00
2019-01-09T20:24:46.418Z,3.10
2019-01-09T20:27:03.414Z,3.10
2019-01-09T20:29:19.633Z,3.10
2019-01-09T20:31:35.888Z,3.10
2019-01-09T20:33:52.209Z,3.10
2019-01-09T20:36:08.076Z,2.60
2019-01-09T20:38:24.153Z,3.20
2019-01-09T20:40:40.673Z,3.10
2019-01-09T20:42:56.978Z,3.10
2019-01-09T20:45:13.772Z,3.20
2019-01-09T20:47:30.000Z,3.10
2019-01-09T20:49:46.374Z,2.20
2019-01-09T20:52:02.687Z,3.00
2019-01-09T20:54:18.939Z,2.90
2019-01-09T20:56:35.203Z,2.90
2019-01-09T20:58:51.008Z,3.00
2019-01-09T21:01:06.750Z,2.80
2019-01-09T21:03:23.268Z,2.90
2019-01-09T21:05:39.998Z,2.90
2019-01-09T21:07:57.220Z,2.90
2019-01-09T21:10:12.930Z,2.90
2019-01-09T21:12:28.804Z,2.90
2019-01-09T21:14:44.767Z,2.70
2019-01-09T21:17:01.269Z,2.80
2019-01-09T21:19:16.947Z,2.70
2019-01-09T21:21:32.880Z,2.80
2019-01-09T21:23:49.287Z,2.90
2019-01-09T21:26:04.912Z,2.90
2019-01-09T21:28:21.184Z,2.80
2019-01-09T21:30:36.899Z,2.20
2019-01-09T21:32:52.743Z,1.80
2019-01-09T21:35:08.392Z,2.80
2019-01-09T21:37:24.777Z,2.80
2019-01-09T21:39:40.632Z,2.70
2019-01-09T21:41:55.951Z,2.70
2019-01-09T21:44:16.135Z,2.70
2019-01-09T21:46:30.098Z,2.70
2019-01-09T21:48:45.728Z,2.70
2019-01-09T21:51:02.132Z,2.60
2019-01-09T21:54:39.674Z,2.60
2019-01-09T21:56:55.996Z,2.50
2019-01-09T22:01:29.031Z,2.70
2019-01-09T22:03:44.747Z,2.60
2019-01-09T22:06:00.317Z,2.70
2019-01-09T22:08:15.961Z,2.70
2019-01-09T22:10:31.374Z,2.60
2019-01-09T22:12:47.627Z,2.60
2019-01-09T22:15:03.342Z,2.50
2019-01-09T22:17:19.602Z,2.50
2019-01-09T22:21:52.242Z,1.70
2019-01-09T22:24:07.699Z,2.50
2019-01-09T22:26:23.984Z,2.50
2019-01-09T22:28:39.898Z,2.50
2019-01-09T22:30:55.527Z,2.60
2019-01-09T22:33:11.524Z,2.50
2019-01-09T22:35:27.256Z,2.50
2019-01-09T22:37:43.294Z,2.40
2019-01-09T22:39:58.758Z,2.50
2019-01-09T22:42:14.480Z,2.50
2019-01-09T22:44:30.828Z,2.40
2019-01-09T22:46:47.240Z,2.50
2019-01-09T22:49:02.775Z,2.40
2019-01-09T22:51:18.833Z,2.50
2019-01-09T22:53:35.272Z,2.40
2019-01-09T22:55:51.419Z,2.30
2019-01-09T22:58:07.747Z,2.40
2019-01-09T23:00:23.421Z,1.70
2019-01-09T23:02:39.531Z,2.50
2019-01-09T23:04:55.223Z,2.40
2019-01-09T23:07:11.864Z,2.40
2019-01-09T23:09:27.747Z,2.50
2019-01-09T23:11:43.396Z,2.50
2019-01-09T23:13:58.950Z,2.50
2019-01-09T23:16:14.616Z,2.40
2019-01-09T23:18:30.338Z,2.40
2019-01-09T23:20:47.156Z,2.50
2019-01-09T23:23:03.296Z,2.30
2019-01-09T23:25:18.915Z,2.40
2019-01-09T23:27:35.563Z,2.30
2019-01-09T23:29:51.190Z,2.30
2019-01-09T23:32:06.661Z,2.40
2019-01-09T23:34:22.367Z,2.30
2019-01-09T23:36:39.142Z,2.30
2019-01-09T23:38:55.435Z,2.40
2019-01-09T23:41:11.486Z,2.40
2019-01-09T23:43:27.205Z,2.40
2019-01-09T23:45:43.703Z,2.40
2019-01-09T23:47:59.976Z,2.40
2019-01-09T23:50:16.511Z,2.50
2019-01-09T23:52:33.015Z,2.40
2019-01-09T23:57:06.511Z,2.30
2019-01-09T23:59:22.855Z,2.10
